METAR Data
IDs: Format: Raw Decoded Include TAF

Data at: 1303 UTC 23 Sep 2018

KSAT 231251Z 26003KT 10SM OVC024 21/18 A2995 RMK AO2 SLP126 T02060178